createdAt,value
2018-07-09T00:00:58.684Z,7.53
2018-07-09T00:03:27.910Z,7.43
2018-07-09T00:05:56.780Z,8.60
2018-07-09T00:08:25.775Z,7.33
2018-07-09T00:11:00.495Z,7.10
2018-07-09T00:13:30.854Z,7.90
2018-07-09T00:16:00.088Z,7.83
2018-07-09T00:18:29.246Z,7.70
2018-07-09T00:20:58.428Z,8.50
2018-07-09T00:23:27.463Z,7.80
2018-07-09T00:25:57.282Z,7.53
2018-07-09T00:28:26.448Z,6.70
2018-07-09T00:30:55.573Z,8.10
2018-07-09T00:33:24.361Z,8.47
2018-07-09T00:35:53.389Z,7.73
2018-07-09T00:38:22.461Z,8.70
2018-07-09T00:40:51.378Z,6.87
2018-07-09T00:43:20.631Z,7.70
2018-07-09T00:45:49.726Z,9.17
2018-07-09T00:48:19.475Z,8.07
2018-07-09T00:50:48.297Z,8.00
2018-07-09T00:53:17.604Z,8.07
2018-07-09T00:55:46.703Z,8.10
2018-07-09T00:58:15.859Z,7.43
2018-07-09T01:00:44.900Z,7.83
2018-07-09T01:03:13.879Z,8.30
2018-07-09T01:05:42.898Z,7.67
2018-07-09T01:08:12.007Z,8.30
2018-07-09T01:10:52.019Z,7.40
2018-07-09T01:13:27.114Z,7.43
2018-07-09T01:15:56.176Z,7.93
2018-07-09T01:18:25.294Z,7.33
2018-07-09T01:20:54.906Z,8.10
2018-07-09T01:23:24.346Z,7.33
2018-07-09T01:25:53.338Z,8.40
2018-07-09T01:28:22.396Z,8.70
2018-07-09T01:30:51.696Z,8.30
2018-07-09T01:33:20.570Z,7.40
2018-07-09T01:35:49.748Z,7.80
2018-07-09T01:38:18.564Z,9.40
2018-07-09T01:40:47.377Z,7.50
2018-07-09T01:43:16.538Z,7.97
2018-07-09T01:45:45.796Z,8.47
2018-07-09T01:48:14.633Z,6.70
2018-07-09T01:50:43.427Z,7.20
2018-07-09T01:53:12.348Z,7.70
2018-07-09T01:55:41.248Z,7.70
2018-07-09T01:58:10.122Z,7.17
2018-07-09T02:00:39.170Z,7.73
2018-07-09T02:03:08.297Z,6.70
2018-07-09T02:05:37.791Z,7.63
2018-07-09T02:08:07.033Z,6.70
2018-07-09T02:10:36.039Z,7.30
2018-07-09T02:13:05.071Z,6.40
2018-07-09T02:15:34.902Z,6.83
2018-07-09T02:18:04.300Z,6.90
2018-07-09T02:20:33.065Z,6.40
2018-07-09T02:23:02.198Z,7.27
2018-07-09T02:25:31.213Z,6.47
2018-07-09T02:28:00.487Z,5.73
2018-07-09T02:30:29.546Z,6.40
2018-07-09T02:32:58.565Z,6.43
2018-07-09T02:35:28.505Z,6.80
2018-07-09T02:37:57.884Z,6.83
2018-07-09T02:40:27.581Z,7.50
2018-07-09T02:42:56.578Z,6.80
2018-07-09T02:45:25.351Z,6.20
2018-07-09T02:47:54.191Z,6.57
2018-07-09T02:50:23.249Z,6.33
2018-07-09T02:52:52.503Z,5.13
2018-07-09T02:55:21.648Z,6.77
2018-07-09T02:57:50.395Z,5.67
2018-07-09T03:00:19.572Z,6.37
2018-07-09T03:02:48.503Z,6.13
2018-07-09T03:05:17.613Z,7.40
2018-07-09T03:07:46.849Z,7.03
2018-07-09T03:10:15.599Z,7.90
2018-07-09T03:12:44.613Z,7.20
2018-07-09T03:15:13.352Z,5.43
2018-07-09T03:17:42.995Z,6.77
2018-07-09T03:20:12.480Z,7.17
2018-07-09T03:22:41.619Z,6.83
2018-07-09T03:25:10.690Z,7.20
2018-07-09T03:27:39.486Z,7.33
2018-07-09T03:30:08.299Z,7.53
2018-07-09T03:32:37.419Z,8.70
2018-07-09T03:35:06.241Z,7.83
2018-07-09T03:37:34.988Z,10.10
2018-07-09T03:40:03.760Z,8.10
2018-07-09T03:42:32.641Z,10.10
2018-07-09T03:45:01.714Z,9.37
2018-07-09T03:47:30.461Z,10.10
2018-07-09T03:49:59.642Z,10.20
2018-07-09T03:52:28.667Z,8.80
2018-07-09T03:54:57.427Z,9.00
2018-07-09T03:57:26.515Z,10.10
2018-07-09T03:59:55.592Z,10.60
2018-07-09T04:02:24.701Z,9.50
2018-07-09T04:04:53.462Z,10.90
2018-07-09T04:07:22.382Z,10.80
2018-07-09T04:09:51.132Z,8.83
2018-07-09T04:12:20.564Z,8.83
2018-07-09T04:14:49.978Z,10.13
2018-07-09T04:17:19.037Z,12.17
2018-07-09T04:19:48.186Z,11.47
2018-07-09T04:22:17.548Z,11.30
2018-07-09T04:24:46.636Z,11.50
2018-07-09T04:27:15.763Z,11.30
2018-07-09T04:29:44.767Z,11.57
2018-07-09T04:32:13.553Z,11.33
2018-07-09T04:34:42.339Z,11.67
2018-07-09T04:37:11.424Z,12.40
2018-07-09T04:39:40.253Z,12.50
2018-07-09T04:42:09.083Z,11.60
2018-07-09T04:44:38.158Z,13.27
2018-07-09T04:47:08.024Z,11.63
2018-07-09T04:49:37.801Z,11.47
2018-07-09T04:52:07.488Z,11.83
2018-07-09T04:54:37.091Z,13.23
2018-07-09T04:57:06.895Z,11.40
2018-07-09T04:59:36.960Z,12.13
2018-07-09T05:02:05.992Z,11.80
2018-07-09T05:04:35.264Z,11.87
2018-07-09T05:07:04.355Z,14.03
2018-07-09T05:09:33.159Z,13.00
2018-07-09T05:12:02.660Z,12.40
2018-07-09T05:14:31.723Z,11.97
2018-07-09T05:17:00.846Z,12.30
2018-07-09T05:19:29.762Z,13.60
2018-07-09T05:21:58.815Z,12.60
2018-07-09T05:24:28.082Z,12.43
2018-07-09T05:26:56.975Z,12.77
2018-07-09T05:29:26.179Z,13.33
2018-07-09T05:31:55.031Z,12.93
2018-07-09T05:34:24.324Z,14.27
2018-07-09T05:36:53.181Z,12.67
2018-07-09T05:39:22.649Z,12.90
2018-07-09T05:41:52.278Z,11.20
2018-07-09T05:44:21.123Z,12.50
2018-07-09T05:46:50.227Z,13.73
2018-07-09T05:49:19.369Z,14.50
2018-07-09T05:51:48.780Z,13.83
2018-07-09T05:54:18.766Z,15.00
2018-07-09T05:56:47.608Z,13.97
2018-07-09T05:59:16.652Z,13.77
2018-07-09T06:01:45.627Z,13.73
2018-07-09T06:04:14.735Z,14.80
2018-07-09T06:06:43.599Z,13.23
2018-07-09T06:09:12.894Z,13.53
2018-07-09T06:11:41.898Z,13.47
2018-07-09T06:14:11.385Z,13.97
2018-07-09T06:16:40.497Z,13.93
2018-07-09T06:19:09.604Z,14.00
2018-07-09T06:21:38.708Z,13.47
2018-07-09T06:24:08.416Z,13.13
2018-07-09T06:26:38.059Z,13.73
2018-07-09T06:29:07.199Z,13.60
2018-07-09T06:31:36.365Z,13.40
2018-07-09T06:34:05.159Z,14.07
2018-07-09T06:36:34.591Z,14.33
2018-07-09T06:39:03.785Z,13.70
2018-07-09T06:41:32.567Z,13.07
2018-07-09T06:44:01.541Z,15.20
2018-07-09T06:46:31.109Z,14.57
2018-07-09T06:48:59.921Z,13.27
2018-07-09T06:51:28.723Z,13.80
2018-07-09T06:53:58.065Z,14.17
2018-07-09T06:56:26.890Z,13.30
2018-07-09T06:58:55.702Z,14.60
2018-07-09T07:01:24.820Z,14.00
2018-07-09T07:03:53.663Z,14.23
2018-07-09T07:06:23.166Z,13.77
2018-07-09T07:08:52.661Z,13.70
2018-07-09T07:11:21.754Z,12.43
2018-07-09T07:13:51.222Z,12.20
2018-07-09T07:16:20.056Z,11.03
2018-07-09T07:18:49.417Z,11.23
2018-07-09T07:21:18.321Z,10.30
2018-07-09T07:23:47.513Z,11.43
2018-07-09T07:26:16.382Z,9.70
2018-07-09T07:28:45.139Z,11.00
2018-07-09T07:31:14.376Z,11.20
2018-07-09T07:33:43.169Z,11.20
2018-07-09T07:36:12.086Z,10.97
2018-07-09T07:38:41.171Z,9.77
2018-07-09T07:41:10.593Z,9.73
2018-07-09T07:43:39.433Z,9.80
2018-07-09T07:46:09.022Z,8.30
2018-07-09T07:48:38.507Z,8.37
2018-07-09T07:51:07.437Z,9.37
2018-07-09T07:53:36.565Z,8.07
2018-07-09T07:56:05.625Z,9.13
2018-07-09T07:58:34.683Z,7.40
2018-07-09T08:01:03.723Z,7.70
2018-07-09T08:03:32.847Z,7.13
2018-07-09T08:06:01.859Z,8.57
2018-07-09T08:08:30.612Z,7.27
2018-07-09T08:11:10.909Z,7.93
2018-07-09T08:13:29.227Z,7.57
2018-07-09T08:15:57.748Z,8.73
2018-07-09T08:18:26.801Z,6.50
2018-07-09T08:20:55.703Z,6.93
2018-07-09T08:23:24.562Z,7.30
2018-07-09T08:25:56.036Z,6.83
2018-07-09T08:28:24.851Z,6.73
2018-07-09T08:30:53.960Z,6.30
2018-07-09T08:33:23.563Z,5.93
2018-07-09T08:35:52.403Z,5.27
2018-07-09T08:38:21.171Z,5.30
2018-07-09T08:40:50.363Z,5.90
2018-07-09T08:43:19.540Z,4.30
2018-07-09T08:45:48.346Z,5.63
2018-07-09T08:48:17.490Z,5.50
2018-07-09T08:50:46.261Z,4.20
2018-07-09T08:53:15.629Z,4.70
2018-07-09T08:55:44.922Z,4.43
2018-07-09T08:58:14.280Z,4.00
2018-07-09T09:00:43.688Z,3.50
2018-07-09T09:03:12.833Z,3.57
2018-07-09T09:05:41.881Z,3.70
2018-07-09T09:08:10.720Z,3.33
2018-07-09T09:10:39.489Z,4.00
2018-07-09T09:13:08.612Z,2.97
2018-07-09T09:15:37.692Z,3.87
2018-07-09T09:18:06.520Z,3.97
2018-07-09T09:20:35.727Z,3.20
2018-07-09T09:23:04.576Z,3.07
2018-07-09T09:25:33.394Z,3.53
2018-07-09T09:28:02.202Z,3.50
2018-07-09T09:30:31.191Z,3.03
2018-07-09T09:33:00.195Z,3.30
2018-07-09T09:35:29.568Z,3.47
2018-07-09T09:37:58.850Z,3.30
2018-07-09T09:40:27.640Z,2.70
2018-07-09T09:42:56.448Z,3.20
2018-07-09T09:45:25.409Z,2.77
2018-07-09T09:47:54.665Z,3.10
2018-07-09T09:50:23.743Z,3.40
2018-07-09T09:52:53.396Z,3.53
2018-07-09T09:55:22.910Z,2.50
2018-07-09T09:57:52.330Z,3.70
2018-07-09T10:00:25.220Z,3.30
2018-07-09T10:02:54.245Z,3.20
2018-07-09T10:05:23.404Z,3.00
2018-07-09T10:07:52.347Z,2.80
2018-07-09T10:10:21.203Z,3.23
2018-07-09T10:12:50.209Z,3.20
2018-07-09T10:15:19.480Z,2.57
2018-07-09T10:17:48.306Z,2.50
2018-07-09T10:20:17.142Z,2.23
2018-07-09T10:22:50.333Z,3.03
2018-07-09T10:25:19.707Z,2.67
2018-07-09T10:27:48.805Z,3.00
2018-07-09T10:30:18.294Z,3.20
2018-07-09T10:32:47.717Z,3.17
2018-07-09T10:35:17.115Z,2.50
2018-07-09T10:37:46.259Z,2.50
2018-07-09T10:40:15.053Z,2.73
2018-07-09T10:42:45.108Z,2.23
2018-07-09T10:45:14.212Z,2.70
2018-07-09T10:47:43.002Z,2.50
2018-07-09T10:50:12.824Z,2.53
2018-07-09T10:52:41.932Z,2.20
2018-07-09T10:55:11.212Z,2.60
2018-07-09T10:57:40.618Z,2.30
2018-07-09T11:00:09.891Z,2.40
2018-07-09T11:02:38.733Z,2.23
2018-07-09T11:05:07.915Z,2.30
2018-07-09T11:07:36.700Z,2.17
2018-07-09T11:10:06.136Z,2.00
2018-07-09T11:12:34.944Z,2.50
2018-07-09T11:15:03.991Z,1.80
2018-07-09T11:17:33.391Z,2.13
2018-07-09T11:20:02.999Z,2.30
2018-07-09T11:22:32.503Z,2.80
2018-07-09T11:25:01.295Z,2.60
2018-07-09T11:27:30.638Z,2.30
2018-07-09T11:30:00.024Z,2.93
2018-07-09T11:32:29.372Z,3.00
2018-07-09T11:34:58.683Z,3.63
2018-07-09T11:37:28.143Z,3.30
2018-07-09T11:39:56.981Z,3.60
2018-07-09T11:42:26.129Z,4.10
2018-07-09T11:44:55.477Z,3.30
2018-07-09T11:47:24.871Z,3.13
2018-07-09T11:49:53.945Z,2.90
2018-07-09T11:52:23.067Z,3.90
2018-07-09T11:54:52.226Z,3.70
2018-07-09T11:57:21.025Z,3.37
2018-07-09T11:59:50.089Z,3.57
2018-07-09T12:02:18.865Z,3.37
2018-07-09T12:04:47.797Z,4.30
2018-07-09T12:07:16.579Z,3.07
2018-07-09T12:09:45.737Z,3.70
2018-07-09T12:12:15.098Z,3.50
2018-07-09T12:14:43.947Z,3.83
2018-07-09T12:17:13.448Z,3.37
2018-07-09T12:19:42.790Z,3.43
2018-07-09T12:22:11.944Z,2.93
2018-07-09T12:24:41.400Z,3.20
2018-07-09T12:27:26.444Z,2.87
2018-07-09T12:29:55.967Z,2.97
2018-07-09T12:32:25.447Z,3.47
2018-07-09T12:34:54.310Z,3.43
2018-07-09T12:37:23.572Z,2.57
2018-07-09T12:39:52.707Z,2.53
2018-07-09T12:42:22.148Z,1.90
2018-07-09T12:44:51.103Z,2.33
2018-07-09T12:47:19.983Z,2.83
2018-07-09T12:49:48.929Z,2.13
2018-07-09T12:52:18.116Z,2.37
2018-07-09T12:54:47.839Z,2.00
2018-07-09T12:57:16.721Z,1.77
2018-07-09T12:59:46.247Z,1.63
2018-07-09T13:02:15.800Z,1.80
2018-07-09T13:04:45.244Z,2.17
2018-07-09T13:07:15.061Z,1.37
2018-07-09T13:09:43.944Z,2.57
2018-07-09T13:12:13.129Z,1.60
2018-07-09T13:14:42.373Z,1.83
2018-07-09T13:17:11.478Z,2.17
2018-07-09T13:19:40.930Z,2.37
2018-07-09T13:22:09.854Z,2.10
2018-07-09T13:24:38.688Z,2.13
2018-07-09T13:27:08.178Z,2.30
2018-07-09T13:29:37.066Z,2.27
2018-07-09T13:32:06.231Z,1.77
2018-07-09T13:34:35.629Z,2.23
2018-07-09T13:37:05.418Z,2.63
2018-07-09T13:39:35.106Z,1.90
2018-07-09T13:42:07.586Z,2.63
2018-07-09T13:44:37.036Z,1.83
2018-07-09T13:47:06.110Z,2.07
2018-07-09T13:49:35.289Z,2.10
2018-07-09T13:52:04.505Z,1.83
2018-07-09T13:54:33.757Z,2.67
2018-07-09T13:57:02.644Z,2.90
2018-07-09T13:59:31.779Z,2.17
2018-07-09T14:02:00.975Z,3.00
2018-07-09T14:04:30.388Z,2.93
2018-07-09T14:06:59.289Z,2.00
2018-07-09T14:09:28.238Z,3.10
2018-07-09T14:11:57.086Z,2.50
2018-07-09T14:14:26.187Z,2.83
2018-07-09T14:16:55.110Z,2.00
2018-07-09T14:20:34.490Z,2.63
2018-07-09T14:23:04.268Z,2.40
2018-07-09T14:25:33.505Z,2.77
2018-07-09T14:28:02.934Z,2.37
2018-07-09T14:30:32.468Z,2.93
2018-07-09T14:33:05.200Z,2.70
2018-07-09T14:35:34.385Z,2.47
2018-07-09T14:38:03.291Z,2.13
2018-07-09T14:40:32.163Z,2.70
2018-07-09T14:43:01.087Z,2.70
2018-07-09T14:45:30.278Z,3.47
2018-07-09T14:47:59.180Z,2.40
2018-07-09T14:50:28.488Z,2.63
2018-07-09T14:52:57.653Z,2.60
2018-07-09T14:55:26.847Z,2.23
2018-07-09T14:57:55.769Z,2.23
2018-07-09T15:00:24.732Z,3.53
2018-07-09T15:02:54.506Z,3.50
2018-07-09T15:05:23.645Z,2.20
2018-07-09T15:07:53.763Z,2.90
2018-07-09T15:10:22.981Z,2.80
2018-07-09T15:12:51.856Z,2.70
2018-07-09T15:15:20.787Z,2.47
2018-07-09T15:17:50.606Z,2.93
2018-07-09T15:20:19.764Z,3.30
2018-07-09T15:22:48.685Z,2.27
2018-07-09T15:25:17.587Z,2.37
2018-07-09T15:27:46.939Z,1.60
2018-07-09T15:30:16.107Z,3.13
2018-07-09T15:32:44.975Z,2.93
2018-07-09T15:35:14.168Z,2.23
2018-07-09T15:37:43.697Z,2.40
2018-07-09T15:40:12.568Z,2.80
2018-07-09T15:42:41.722Z,2.77
2018-07-09T15:45:10.593Z,1.83
2018-07-09T15:47:39.567Z,2.40
2018-07-09T15:50:08.466Z,2.87
2018-07-09T15:52:37.661Z,3.23
2018-07-09T15:55:06.621Z,3.47
2018-07-09T15:57:35.500Z,1.80
2018-07-09T16:00:04.481Z,2.77
2018-07-09T16:02:33.356Z,2.17
2018-07-09T16:05:02.249Z,2.07
2018-07-09T16:07:31.463Z,1.60
2018-07-09T16:10:00.981Z,1.50
2018-07-09T16:12:30.135Z,2.90
2018-07-09T16:14:59.385Z,1.70
2018-07-09T16:17:28.502Z,2.60
2018-07-09T16:19:57.789Z,1.70
2018-07-09T16:22:27.016Z,1.43
2018-07-09T16:24:56.479Z,2.43
2018-07-09T16:27:25.840Z,1.80
2018-07-09T16:29:55.097Z,1.93
2018-07-09T16:32:24.500Z,1.60
2018-07-09T16:34:53.998Z,1.60
2018-07-09T16:37:22.888Z,1.43
2018-07-09T16:39:52.117Z,1.50
2018-07-09T16:42:21.049Z,1.50
2018-07-09T16:44:50.255Z,1.47
2018-07-09T16:47:19.474Z,1.77
2018-07-09T16:49:48.664Z,2.33
2018-07-09T16:52:17.527Z,1.30
2018-07-09T16:54:47.166Z,1.30
2018-07-09T16:57:16.005Z,1.07
2018-07-09T16:59:45.506Z,1.10
2018-07-09T17:02:14.700Z,1.70
2018-07-09T17:04:43.823Z,1.37
2018-07-09T17:07:12.770Z,1.10
2018-07-09T17:09:42.414Z,1.13
2018-07-09T17:12:11.576Z,0.93
2018-07-09T17:14:40.488Z,1.50
2018-07-09T17:17:09.369Z,2.17
2018-07-09T17:19:38.344Z,1.20
2018-07-09T17:22:11.703Z,1.40
2018-07-09T17:24:40.663Z,1.90
2018-07-09T17:27:09.678Z,1.13
2018-07-09T17:29:38.583Z,1.67
2018-07-09T17:32:07.959Z,1.67
2018-07-09T17:34:36.920Z,1.73
2018-07-09T17:37:06.540Z,1.53
2018-07-09T17:39:35.756Z,1.33
2018-07-09T17:42:04.659Z,1.53
2018-07-09T17:44:33.613Z,1.87
2018-07-09T17:47:02.516Z,1.83
2018-07-09T17:49:32.043Z,1.10
2018-07-09T17:52:01.206Z,1.70
2018-07-09T17:54:30.557Z,1.07
2018-07-09T17:57:00.220Z,0.90
2018-07-09T17:59:30.155Z,1.30
2018-07-09T18:01:59.700Z,1.20
2018-07-09T18:04:28.906Z,1.50
2018-07-09T18:06:57.769Z,1.80
2018-07-09T18:09:26.709Z,1.83
2018-07-09T18:11:55.545Z,2.03
2018-07-09T18:14:24.783Z,3.10
2018-07-09T18:16:53.919Z,1.67
2018-07-09T18:19:23.498Z,1.60
2018-07-09T18:21:52.714Z,1.20
2018-07-09T18:24:21.632Z,1.07
2018-07-09T18:26:51.370Z,1.90
2018-07-09T18:29:20.641Z,1.60
2018-07-09T18:31:50.040Z,1.90
2018-07-09T18:34:19.383Z,1.93
2018-07-09T18:36:48.522Z,2.00
2018-07-09T18:39:18.881Z,1.80
2018-07-09T18:41:50.668Z,1.07
2018-07-09T18:44:21.081Z,3.10
2018-07-09T18:46:51.178Z,2.30
2018-07-09T18:49:20.921Z,1.97
2018-07-09T18:51:51.144Z,2.00
2018-07-09T18:54:22.404Z,2.37
2018-07-09T18:56:52.596Z,1.30
2018-07-09T18:59:23.247Z,1.57
2018-07-09T19:01:53.433Z,1.33
2018-07-09T19:04:24.509Z,1.60
2018-07-09T19:06:58.243Z,1.90
2018-07-09T19:09:29.971Z,1.80
2018-07-09T19:12:02.554Z,1.53
2018-07-09T19:14:37.502Z,2.60
2018-07-09T19:18:03.659Z,1.80
2018-07-09T19:20:44.999Z,1.63
2018-07-09T19:23:14.656Z,1.70
2018-07-09T19:25:44.099Z,1.77
2018-07-09T19:28:12.658Z,1.70
2018-07-09T19:30:41.319Z,1.60
2018-07-09T19:33:09.848Z,1.20
2018-07-09T19:35:38.267Z,1.07
2018-07-09T19:38:06.409Z,1.60
2018-07-09T19:40:34.633Z,1.90
2018-07-09T19:43:02.262Z,1.93
2018-07-09T19:45:29.982Z,2.00
2018-07-09T19:47:57.546Z,2.80
2018-07-09T19:50:25.074Z,2.00
2018-07-09T19:52:52.583Z,1.80
2018-07-09T19:55:20.274Z,2.40
2018-07-09T19:57:47.784Z,1.20
2018-07-09T20:00:15.253Z,1.80
2018-07-09T20:02:50.415Z,1.13
2018-07-09T20:05:17.863Z,1.13
2018-07-09T20:07:45.980Z,1.10
2018-07-09T20:10:18.712Z,1.17
2018-07-09T20:12:51.286Z,1.70
2018-07-09T20:15:23.821Z,1.00
2018-07-09T20:17:51.287Z,1.90
2018-07-09T20:20:19.010Z,1.17
2018-07-09T20:22:46.786Z,1.30
2018-07-09T20:25:14.600Z,1.30
2018-07-09T20:27:42.382Z,1.87
2018-07-09T20:30:09.835Z,1.03
2018-07-09T20:32:37.594Z,2.03
2018-07-09T20:35:05.359Z,1.07
2018-07-09T20:37:32.913Z,1.50
2018-07-09T20:40:00.741Z,1.43
2018-07-09T20:42:28.166Z,1.80
2018-07-09T20:44:56.325Z,1.37
2018-07-09T20:47:23.851Z,0.90
2018-07-09T20:49:51.560Z,0.93
2018-07-09T20:52:19.074Z,1.20
2018-07-09T20:54:46.582Z,1.70
2018-07-09T20:57:14.885Z,1.43
2018-07-09T20:59:42.817Z,1.20
2018-07-09T21:02:10.251Z,1.30
2018-07-09T21:04:38.037Z,3.20
2018-07-09T21:07:05.591Z,2.00
2018-07-09T21:09:34.092Z,3.37
2018-07-09T21:12:08.950Z,1.60
2018-07-09T21:14:36.451Z,1.37
2018-07-09T21:17:04.160Z,1.60
2018-07-09T21:19:31.910Z,1.47
2018-07-09T21:21:59.471Z,1.50
2018-07-09T21:24:27.155Z,1.77
2018-07-09T21:26:54.619Z,1.63
2018-07-09T21:29:22.396Z,1.37
2018-07-09T21:31:49.879Z,1.60
2018-07-09T21:34:17.723Z,1.60
2018-07-09T21:36:45.171Z,1.90
2018-07-09T21:39:12.893Z,1.80
2018-07-09T21:41:41.410Z,1.60
2018-07-09T21:44:09.438Z,1.70
2018-07-09T21:46:37.133Z,2.30
2018-07-09T21:49:04.559Z,1.67
2018-07-09T21:51:32.067Z,2.47
2018-07-09T21:53:59.739Z,2.23
2018-07-09T21:56:27.310Z,2.80
2018-07-09T21:58:55.006Z,2.83
2018-07-09T22:01:22.485Z,1.93
2018-07-09T22:03:50.170Z,2.30
2018-07-09T22:06:17.615Z,2.40
2018-07-09T22:08:45.194Z,3.13
2018-07-09T22:11:12.654Z,3.40
2018-07-09T22:13:40.373Z,3.10
2018-07-09T22:16:08.340Z,2.63
2018-07-09T22:18:36.145Z,2.20
2018-07-09T22:21:03.579Z,1.60
2018-07-09T22:23:32.070Z,2.60
2018-07-09T22:25:59.978Z,2.20
2018-07-09T22:28:27.406Z,2.60
2018-07-09T22:30:56.193Z,2.50
2018-07-09T22:33:26.210Z,1.70
2018-07-09T22:35:54.982Z,2.67
2018-07-09T22:38:23.779Z,2.40
2018-07-09T22:40:52.845Z,2.57
2018-07-09T22:43:33.174Z,2.87
2018-07-09T22:46:02.266Z,2.70
2018-07-09T22:48:31.137Z,2.33
2018-07-09T22:51:00.470Z,2.30
2018-07-09T22:53:29.666Z,1.77
2018-07-09T22:56:11.497Z,2.63
2018-07-09T22:58:41.702Z,2.10
2018-07-09T23:01:10.537Z,1.83
2018-07-09T23:03:39.494Z,1.33
2018-07-09T23:06:08.783Z,2.33
2018-07-09T23:08:37.646Z,2.00
2018-07-09T23:11:17.837Z,2.30
2018-07-09T23:14:57.501Z,3.07
2018-07-09T23:17:37.600Z,2.40
2018-07-09T23:20:55.649Z,2.03
2018-07-09T23:23:27.474Z,2.63
2018-07-09T23:25:55.056Z,1.60
2018-07-09T23:28:22.804Z,3.83
2018-07-09T23:30:50.293Z,3.50
2018-07-09T23:33:18.604Z,3.07
2018-07-09T23:35:46.127Z,3.17
2018-07-09T23:38:13.843Z,2.67
2018-07-09T23:40:41.303Z,2.20
2018-07-09T23:43:08.797Z,2.80
2018-07-09T23:45:36.359Z,2.83
2018-07-09T23:48:03.804Z,2.53
2018-07-09T23:50:31.590Z,1.93
2018-07-09T23:53:00.105Z,3.23
2018-07-09T23:55:31.006Z,3.17
